Spirit Of Vi — CFL2070 — position and weather

sailwx.info

Track history (hours):
 
Tides and Currents Weather Stations Pressure Air Temp Water Temp Dewpoint Dewpoint Depression Visibility Wind Speed Wind Dir Waves Ship Positions

Spirit Of Vi

Last reported at 2017-May-28 10:30 UTC. Time now 2017-May-28 12:21 UTC.
Position N 48°41' W 123°25'.

Length 168 m; draft 5 m.

Type: Ship. MMSI: 316001269.

Date/timePositionNaut miles runAvg speedWind from/ knotsBaromVisibWave heightAir tempDewpointWater temp
2017-May-28 10:30N 48°41' W 123°25'0 0.0
2017-May-28 10:00N 48°41' W 123°25'0 0.0
2017-May-28 09:27N 48°41' W 123°25'0 0.0
2017-May-28 08:57N 48°41' W 123°25'0 0.0
2017-May-28 07:09N 48°41' W 123°25'0 0.0
2017-May-28 06:45N 48°41' W 123°25'0 0.0
2017-May-28 06:30N 48°41' W 123°25'0 0.0
2017-May-28 06:00N 48°41' W 123°25'0 0.8
2017-May-28 05:24N 48°42' W 123°24'817.3
2017-May-28 04:58N 48°49' W 123°21'916.1
2017-May-28 04:25N 48°56' W 123°13'613.2
2017-May-28 04:00N 49°00' W 123°08'0 0.2
2017-May-28 03:30N 49°00' W 123°08'918.2
2017-May-28 03:00N 48°53' W 123°17'714.9
2017-May-28 02:30N 48°46' W 123°21'5 9.4
2017-May-28 01:55N 48°41' W 123°25'0 0.0
2017-May-28 01:30N 48°41' W 123°25'714.0
2017-May-28 00:59N 48°48' W 123°21'714.6
2017-May-28 00:30N 48°55' W 123°16'816.0
2017-May-28 00:01N 49°00' W 123°08'0 0.0
2017-May-27 23:30N 49°00' W 123°08'714.5
2017-May-27 23:00N 48°55' W 123°15'816.8
2017-May-27 22:30N 48°47' W 123°21'713.1
2017-May-27 22:00N 48°41' W 123°25'0 0.2
2017-May-27 21:30N 48°41' W 123°25'816.3
2017-May-27 21:00N 48°49' W 123°21'714.9
2017-May-27 20:30N 48°56' W 123°15'713.1
2017-May-27 20:00N 49°00' W 123°08'0 0.0
2017-May-27 19:30N 49°00' W 123°08'816.8
2017-May-27 19:00N 48°54' W 123°16'713.6
2017-May-27 18:30N 48°48' W 123°21'713.9
2017-May-27 18:01N 48°41' W 123°25'0 0.0
2017-May-27 17:31N 48°41' W 123°25'815.5
2017-May-27 17:00N 48°49' W 123°21'917.4
2017-May-27 16:30N 48°56' W 123°15'611.4
2017-May-27 16:00N 49°00' W 123°08'0 0.2
2017-May-27 15:30N 49°00' W 123°08'917.6
2017-May-27 15:00N 48°53' W 123°16'1313.3
2017-May-27 14:01N 48°41' W 123°25'0 0.0
2017-May-27 13:31N 48°41' W 123°25'0 0.0
2017-May-27 13:00N 48°41' W 123°25'0 0.0
2017-May-27 12:30N 48°41' W 123°25'0 0.0
2017-May-27 12:00N 48°41' W 123°25'0 0.0
2017-May-27 11:30N 48°41' W 123°25'0 0.0
2017-May-27 11:00N 48°41' W 123°25'0 0.0
2017-May-27 10:24N 48°41' W 123°25'0 0.0
2017-May-27 10:00N 48°41' W 123°25'0 0.0
2017-May-27 09:30N 48°41' W 123°25'0 0.0
2017-May-27 09:00N 48°41' W 123°25'0 0.0
2017-May-27 08:24N 48°41' W 123°25'0 0.0
2017-May-27 08:00N 48°41' W 123°25'0 0.0
2017-May-27 07:30N 48°41' W 123°25'0 0.0
2017-May-27 07:00N 48°41' W 123°25'0 0.0
2017-May-27 06:27N 48°41' W 123°25'0 0.0
2017-May-27 06:00N 48°41' W 123°25'0 0.4
2017-May-27 05:30N 48°41' W 123°24'917.2
2017-May-27 05:01N 48°50' W 123°21'917.4
2017-May-27 04:30N 48°57' W 123°13'5 9.7
2017-May-27 04:00N 49°00' W 123°08'2 3.3
2017-May-27 03:30N 48°59' W 123°09'918.5
2017-May-27 03:00N 48°52' W 123°18'814.9
2017-May-27 02:30N 48°45' W 123°22'4 7.9
2017-May-27 02:00N 48°41' W 123°25'2 4.9
2017-May-27 01:30N 48°42' W 123°21'918.3
2017-May-27 01:00N 48°52' W 123°21'714.7
2017-May-27 00:30N 48°57' W 123°13'5 9.5
2017-May-27 00:00N 49°00' W 123°08'1 1.9
2017-May-26 23:30N 48°60' W 123°09'1020.1
2017-May-26 23:00N 48°52' W 123°19'817.3
2017-May-26 22:30N 48°44' W 123°24'3 5.2
2017-May-26 22:00N 48°41' W 123°25'2 4.6
2017-May-26 21:30N 48°42' W 123°22'918.2
2017-May-26 21:00N 48°52' W 123°21'714.6
2017-May-26 20:30N 48°57' W 123°13'510.0
2017-May-26 20:00N 49°00' W 123°08'1 2.4
2017-May-26 19:30N 48°59' W 123°09'1019.6
2017-May-26 19:00N 48°52' W 123°19'612.0
2017-May-26 18:30N 48°46' W 123°21'510.3
2017-May-26 18:00N 48°41' W 123°25'0 0.3
2017-May-26 17:30N 48°41' W 123°25'917.3
2017-May-26 17:00N 48°50' W 123°21'816.3
2017-May-26 16:30N 48°57' W 123°14'510.8
2017-May-26 16:01N 49°00' W 123°08'1 1.2
2017-May-26 15:30N 48°60' W 123°08'1019.3
2017-May-26 14:59N 48°52' W 123°18'1111.3
2017-May-26 13:58N 48°41' W 123°25'0 0.0
2017-May-26 13:28N 48°41' W 123°25'0 0.0
2017-May-26 12:58N 48°41' W 123°25'0 0.0
2017-May-26 12:28N 48°41' W 123°25'0 0.0
2017-May-26 11:58N 48°41' W 123°25'0 0.0
2017-May-26 11:28N 48°41' W 123°25'0 0.0
2017-May-26 10:58N 48°41' W 123°25'0 0.0
2017-May-26 10:25N 48°41' W 123°25'0 0.0
2017-May-26 09:58N 48°41' W 123°25'0 0.0
2017-May-26 09:22N 48°41' W 123°25'0 0.0
2017-May-26 08:58N 48°41' W 123°25'0 0.0
2017-May-26 08:28N 48°41' W 123°25'0 0.0
2017-May-26 07:58N 48°41' W 123°25'0 0.0
2017-May-26 07:25N 48°41' W 123°25'0 0.0
2017-May-26 06:52N 48°41' W 123°25'0 0.0
2017-May-26 06:28N 48°41' W 123°25'0 0.0
2017-May-26 05:58N 48°41' W 123°25'0 0.0
2017-May-26 05:30N 48°41' W 123°25'713.1
2017-May-26 05:01N 48°47' W 123°20'816.1
2017-May-26 04:31N 48°55' W 123°16'815.1
2017-May-26 04:00N 49°00' W 123°08'1 1.1
2017-May-26 03:30N 48°60' W 123°09'1019.3
2017-May-26 02:59N 48°52' W 123°18'714.5
2017-May-26 02:30N 48°46' W 123°22'5 9.6
2017-May-26 02:00N 48°41' W 123°25'1 2.1
2017-May-26 01:30N 48°42' W 123°23'917.8
2017-May-26 01:00N 48°51' W 123°21'917.5
2017-May-26 00:30N 48°57' W 123°13'5 9.0
2017-May-26 00:00N 49°00' W 123°08'0 0.2
2017-May-25 23:30N 49°00' W 123°08'917.9
2017-May-25 22:59N 48°53' W 123°17'816.6
2017-May-25 22:30N 48°45' W 123°21'5 6.1
2017-May-25 21:42N 48°41' W 123°25'1 4.9
2017-May-25 21:30N 48°42' W 123°23'917.0
2017-May-25 20:59N 48°50' W 123°21'613.2
2017-May-25 20:30N 48°56' W 123°15'713.3
2017-May-25 19:59N 49°00' W 123°08'0 0.2
2017-May-25 19:30N 49°00' W 123°08'816.2
2017-May-25 19:00N 48°54' W 123°16'714.5
2017-May-25 18:30N 48°48' W 123°21'710.8
2017-May-25 17:53N 48°41' W 123°25'0 0.1
2017-May-25 17:30N 48°41' W 123°25'816.8
2017-May-25 17:00N 48°49' W 123°20'917.5
2017-May-25 16:31N 48°57' W 123°14'5 9.7
2017-May-25 15:58N 49°00' W 123°08'1 2.2
2017-May-25 15:30N 48°59' W 123°08'817.1
2017-May-25 15:00N 48°53' W 123°17'1312.6
2017-May-25 14:00N 48°41' W 123°25'0 0.0
2017-May-25 13:30N 48°41' W 123°25'0 0.0
2017-May-25 13:00N 48°41' W 123°25'0 0.0
2017-May-25 12:27N 48°41' W 123°25'0 0.0
2017-May-25 11:57N 48°41' W 123°25'0 0.0
2017-May-25 11:27N 48°41' W 123°25'0 0.0
2017-May-25 05:48N 48°41' W 123°25'0 0.0
2017-May-25 05:30N 48°41' W 123°25'612.8
2017-May-25 05:00N 48°47' W 123°21'816.6
2017-May-25 04:30N 48°55' W 123°16'815.2
2017-May-25 04:00N 49°00' W 123°08'1 1.2
2017-May-25 03:30N 48°60' W 123°09'1019.8
2017-May-25 03:00N 48°52' W 123°18'714.5
2017-May-25 02:30N 48°46' W 123°22'5 9.1
2017-May-25 02:00N 48°41' W 123°25'0 0.6
2017-May-25 01:30N 48°42' W 123°24'816.7
2017-May-25 01:00N 48°50' W 123°21'816.3
2017-May-25 00:30N 48°56' W 123°14'611.2
2017-May-25 00:00N 49°00' W 123°08'0 0.3
2017-May-24 23:30N 49°00' W 123°08'918.3
2017-May-24 23:00N 48°53' W 123°17'816.3
2017-May-24 22:30N 48°45' W 123°21'5 9.7
2017-May-24 22:00N 48°41' W 123°25'1 1.8
2017-May-24 21:30N 48°42' W 123°23'816.9
2017-May-24 21:00N 48°50' W 123°21'815.3
2017-May-24 20:28N 48°57' W 123°13'511.3
2017-May-24 20:00N 49°00' W 123°08'0 0.7
2017-May-24 19:30N 49°00' W 123°08'918.6
2017-May-24 19:00N 48°53' W 123°17'612.8
2017-May-24 18:30N 48°47' W 123°21'612.4
2017-May-24 18:00N 48°41' W 123°25'1 2.1
2017-May-24 17:30N 48°42' W 123°23'1019.1
2017-May-24 17:00N 48°51' W 123°21'918.1
2017-May-24 16:30N 48°57' W 123°11'4 7.3
2017-May-24 16:00N 49°00' W 123°08'1 1.3
2017-May-24 15:30N 48°60' W 123°09'917.5
2017-May-24 15:00N 48°53' W 123°17'612.9
2017-May-24 14:30N 48°47' W 123°21'6 6.2
2017-May-24 13:30N 48°41' W 123°25'0 0.0
2017-May-24 13:01N 48°41' W 123°25'0 0.0
2017-May-24 12:31N 48°41' W 123°25'0 0.0
2017-May-24 12:00N 48°41' W 123°25'0 0.0
2017-May-24 11:30N 48°41' W 123°25'0 0.0
2017-May-24 11:00N 48°41' W 123°25'0 0.0
2017-May-24 10:30N 48°41' W 123°25'0 0.0
2017-May-24 10:00N 48°41' W 123°25'0 0.0
2017-May-24 09:30N 48°41' W 123°25'0 0.0
2017-May-24 09:00N 48°41' W 123°25'0 0.0
2017-May-24 08:30N 48°41' W 123°25'0 0.0
2017-May-24 08:00N 48°41' W 123°25'0 0.0
2017-May-24 07:30N 48°41' W 123°25'0 0.0
2017-May-24 07:00N 48°41' W 123°25'0 0.0
2017-May-24 06:30N 48°41' W 123°25'0 0.0
2017-May-24 06:00N 48°41' W 123°25'5 9.1
2017-May-24 05:31N 48°45' W 123°21'816.4
2017-May-24 05:00N 48°53' W 123°18'918.4
2017-May-24 04:30N 48°60' W 123°08'1 1.2
2017-May-24 04:00N 49°00' W 123°08'5 9.6
2017-May-24 03:30N 48°56' W 123°12'816.8
2017-May-24 03:01N 48°50' W 123°21'917.7
2017-May-24 02:31N 48°42' W 123°27'2 3.1
2017-May-24 02:00N 48°41' W 123°25'3 6.7
2017-May-24 01:31N 48°43' W 123°21'816.4
2017-May-24 01:00N 48°52' W 123°19'816.8
2017-May-24 00:30N 48°58' W 123°11'3 5.6
2017-May-23 23:58N 49°00' W 123°08'1 2.8
2017-May-23 23:30N 48°59' W 123°09'917.9
2017-May-23 23:00N 48°53' W 123°18'714.1
2017-May-23 22:31N 48°46' W 123°22'510.1
2017-May-23 22:00N 48°41' W 123°25'0 0.1
2017-May-23 21:30N 48°41' W 123°25'714.4
2017-May-23 21:00N 48°48' W 123°21'714.6
2017-May-23 20:30N 48°55' W 123°16'815.3
2017-May-23 20:00N 49°00' W 123°08'0 0.2
2017-May-23 19:30N 49°00' W 123°08'917.6
2017-May-23 19:00N 48°53' W 123°17'713.9
2017-May-23 18:30N 48°47' W 123°21'612.6
2017-May-23 18:00N 48°41' W 123°25'0 0.2
2017-May-23 17:31N 48°41' W 123°25'816.0
2017-May-23 17:00N 48°49' W 123°21'816.1
2017-May-23 16:30N 48°56' W 123°14'612.1
2017-May-23 16:00N 49°00' W 123°08'0 0.3
2017-May-23 15:30N 49°00' W 123°08'917.9
2017-May-23 15:00N 48°53' W 123°17'713.9
2017-May-23 14:30N 48°47' W 123°21'6 6.1
2017-May-23 13:30N 48°41' W 123°25'0 0.0
2017-May-23 13:00N 48°41' W 123°25'0 0.0
2017-May-23 12:30N 48°41' W 123°25'0 0.0
2017-May-23 12:00N 48°41' W 123°25'0 0.0
2017-May-23 11:27N 48°41' W 123°25'0 0.0
2017-May-23 11:00N 48°41' W 123°25'0 0.0
2017-May-23 10:27N 48°41' W 123°25'0 0.0
2017-May-23 10:00N 48°41' W 123°25'0 0.0
2017-May-23 09:27N 48°41' W 123°25'0 0.0
2017-May-23 09:00N 48°41' W 123°25'0 0.0
2017-May-23 08:30N 48°41' W 123°25'0 0.0
2017-May-23 08:00N 48°41' W 123°25'0 0.0
2017-May-23 07:30N 48°41' W 123°25'0 0.0
2017-May-23 07:00N 48°41' W 123°25'0 0.0
2017-May-23 06:30N 48°41' W 123°25'0 0.0
2017-May-23 06:00N 48°41' W 123°25'0 0.0
2017-May-23 05:30N 48°41' W 123°25'714.3
2017-May-23 05:00N 48°48' W 123°21'816.1
2017-May-23 04:30N 48°55' W 123°15'713.8
2017-May-23 04:00N 49°00' W 123°08'2 3.0
2017-May-23 03:30N 48°59' W 123°09'919.2
2017-May-23 03:00N 48°52' W 123°18'715.0
2017-May-23 02:30N 48°45' W 123°23'4 7.7
2017-May-23 02:00N 48°41' W 123°25'1 1.9
2017-May-23 01:30N 48°42' W 123°23'918.8
2017-May-23 01:01N 48°51' W 123°21'918.8
2017-May-23 00:30N 48°58' W 123°12'4 6.9
2017-May-23 00:00N 49°00' W 123°08'1 3.0
2017-May-22 23:30N 48°59' W 123°09'1019.5
2017-May-22 23:00N 48°52' W 123°19'815.5
2017-May-22 22:30N 48°45' W 123°23'3 6.8
2017-May-22 22:00N 48°41' W 123°25'0 0.8
2017-May-22 21:30N 48°42' W 123°24'817.1
2017-May-22 21:01N 48°50' W 123°21'612.1
2017-May-22 20:30N 48°55' W 123°16'815.1
2017-May-22 20:00N 49°00' W 123°08'0 0.0
2017-May-22 19:30N 49°00' W 123°08'815.1
2017-May-22 19:00N 48°55' W 123°15'815.6
2017-May-22 18:30N 48°48' W 123°21'713.5
2017-May-22 18:00N 48°41' W 123°25'0 0.1
2017-May-22 17:30N 48°41' W 123°25'815.9
2017-May-22 17:00N 48°49' W 123°21'713.8
2017-May-22 16:30N 48°55' W 123°16'714.5
2017-May-22 16:00N 49°00' W 123°08'0 0.1
2017-May-22 15:30N 49°00' W 123°08'817.0
2017-May-22 15:00N 48°54' W 123°16'1413.6
2017-May-22 14:00N 48°41' W 123°25'0 0.0
2017-May-22 13:31N 48°41' W 123°25'0 0.0
2017-May-22 13:00N 48°41' W 123°25'0 0.0
2017-May-22 12:30N 48°41' W 123°25'0 0.0
2017-May-22 12:00N 48°41' W 123°25'0 0.0
2017-May-22 11:30N 48°41' W 123°25'0 0.0
2017-May-22 11:00N 48°41' W 123°25'0 0.0
2017-May-22 10:30N 48°41' W 123°25'0 0.0
2017-May-22 10:00N 48°41' W 123°25'0 0.0
2017-May-22 09:30N 48°41' W 123°25'0 0.0
2017-May-22 09:00N 48°41' W 123°25'0 0.0
2017-May-22 08:24N 48°41' W 123°25'0 0.0
2017-May-22 08:00N 48°41' W 123°25'0 0.0
2017-May-22 07:12N 48°41' W 123°25'0 0.0
2017-May-22 05:32N 48°41' W 123°25'0 0.4
2017-May-22 05:31N 48°41' W 123°25'713.7
2017-May-22 05:00N 48°48' W 123°21'815.6
2017-May-22 04:30N 48°55' W 123°16'814.9
2017-May-22 04:00N 49°00' W 123°08'0 0.2
2017-May-22 03:30N 49°00' W 123°08'815.8
2017-May-22 03:00N 48°54' W 123°15'714.4
2017-May-22 02:30N 48°48' W 123°21'713.9
2017-May-22 02:00N 48°41' W 123°25'0 0.0
2017-May-22 01:31N 48°41' W 123°25'714.1
2017-May-22 01:00N 48°48' W 123°21'815.5
2017-May-22 00:30N 48°55' W 123°16'714.7
2017-May-22 00:00N 49°00' W 123°08'0 0.1
2017-May-21 23:30N 49°00' W 123°08'917.1
2017-May-21 23:00N 48°54' W 123°16'713.7
2017-May-21 22:30N 48°48' W 123°21'713.4
2017-May-21 22:00N 48°41' W 123°25'0 0.0
2017-May-21 21:30N 48°41' W 123°25'714.3
2017-May-21 21:00N 48°48' W 123°21'814.9
2017-May-21 20:30N 48°55' W 123°15'714.9
2017-May-21 20:00N 49°00' W 123°08'0 0.1
2017-May-21 19:30N 49°00' W 123°08'816.9
2017-May-21 19:01N 48°54' W 123°16'612.9
2017-May-21 18:30N 48°48' W 123°21'714.3
2017-May-21 18:00N 48°41' W 123°25'0 0.3
2017-May-21 17:30N 48°41' W 123°25'816.7
2017-May-21 17:00N 48°49' W 123°21'612.9
2017-May-21 16:30N 48°55' W 123°16'714.7
2017-May-21 16:00N 49°00' W 123°08'0 0.0
2017-May-21 15:30N 49°00' W 123°08'714.6
2017-May-21 15:00N 48°55' W 123°15'1514.7
2017-May-21 14:00N 48°41' W 123°25'0 0.1
2017-May-21 13:30N 48°41' W 123°25'0 0.0
2017-May-21 13:00N 48°41' W 123°25'0 0.0
2017-May-21 12:30N 48°41' W 123°25'0 0.0
2017-May-21 12:00N 48°41' W 123°25'0 0.0
2017-May-21 11:30N 48°41' W 123°25'0 0.0
2017-May-21 11:00N 48°41' W 123°25'0 0.0
2017-May-21 10:30N 48°41' W 123°25'0 0.0
2017-May-21 09:57N 48°41' W 123°25'0 0.0
2017-May-21 09:27N 48°41' W 123°25'0 0.0
2017-May-21 09:00N 48°41' W 123°25'0 0.0
2017-May-21 08:30N 48°41' W 123°25'0 0.0
2017-May-21 08:00N 48°41' W 123°25'0 0.0
2017-May-21 07:30N 48°41' W 123°25'0 0.0
2017-May-21 06:54N 48°41' W 123°25'0 0.0
2017-May-21 06:30N 48°41' W 123°25'0 0.0
2017-May-21 06:00N 48°41' W 123°25'2 3.5
2017-May-21 05:31N 48°42' W 123°22'918.2
2017-May-21 05:00N 48°51' W 123°21'816.7
2017-May-21 04:30N 48°57' W 123°13'5 9.0
2017-May-21 04:00N 49°00' W 123°08'0 0.0
2017-May-21 03:30N 49°00' W 123°08'815.1
2017-May-21 03:00N 48°54' W 123°15'714.7
2017-May-21 02:31N 48°48' W 123°21'714.4
2017-May-21 02:01N 48°41' W 123°25'0 0.2
2017-May-21 01:30N 48°41' W 123°25'917.1
2017-May-21 01:01N 48°50' W 123°21'917.1
2017-May-21 00:30N 48°56' W 123°12'510.0
2017-May-21 00:00N 49°00' W 123°08'0 0.0
2017-May-20 23:30N 49°00' W 123°08'815.9
2017-May-20 23:00N 48°54' W 123°16'713.7
2017-May-20 22:30N 48°48' W 123°21'714.7
2017-May-20 22:00N 48°41' W 123°25'0 0.0
2017-May-20 21:31N 48°41' W 123°25'612.8
2017-May-20 21:00N 48°47' W 123°21'816.5
2017-May-20 20:30N 48°55' W 123°16'815.1
2017-May-20 20:01N 49°00' W 123°08'0 0.0
2017-May-20 19:30N 49°00' W 123°08'715.0
2017-May-20 19:00N 48°55' W 123°15'815.4
2017-May-20 18:30N 48°48' W 123°21'713.9
2017-May-20 18:00N 48°41' W 123°25'0 0.0
2017-May-20 17:30N 48°41' W 123°25'714.3
2017-May-20 17:00N 48°48' W 123°21'816.0
2017-May-20 16:30N 48°55' W 123°16'714.1
2017-May-20 16:00N 49°00' W 123°08'0 0.0
2017-May-20 15:30N 49°00' W 123°08'714.4
2017-May-20 15:00N 48°55' W 123°15'714.6
2017-May-20 14:30N 48°48' W 123°20'8 7.5
2017-May-20 13:30N 48°41' W 123°25'0 0.0
2017-May-20 13:00N 48°41' W 123°25'0 0.0
2017-May-20 12:30N 48°41' W 123°25'0 0.0
2017-May-20 11:59N 48°41' W 123°25'0 0.0
2017-May-20 11:29N 48°41' W 123°25'0 0.0
2017-May-20 10:59N 48°41' W 123°25'0 0.0
2017-May-20 10:29N 48°41' W 123°25'0 0.0
2017-May-20 09:59N 48°41' W 123°25'0 0.0
2017-May-20 09:29N 48°41' W 123°25'0 0.0
2017-May-20 08:59N 48°41' W 123°25'0 0.0
2017-May-20 08:29N 48°41' W 123°25'0 0.0
2017-May-20 07:56N 48°41' W 123°25'0 0.0
2017-May-20 07:29N 48°41' W 123°25'0 0.0
2017-May-20 06:59N 48°41' W 123°25'0 0.0
2017-May-20 06:23N 48°41' W 123°25'0 0.0
2017-May-20 05:59N 48°41' W 123°25'0 0.5
2017-May-20 05:30N 48°41' W 123°24'816.4
2017-May-20 05:00N 48°49' W 123°21'612.7
2017-May-20 04:30N 48°55' W 123°16'815.4
2017-May-20 04:01N 49°00' W 123°08'0 0.0
2017-May-20 03:30N 49°00' W 123°08'816.7
2017-May-20 03:00N 48°54' W 123°16'816.6
2017-May-20 02:30N 48°46' W 123°21'611.1
2017-May-20 02:00N 48°41' W 123°25'3 5.5
2017-May-20 01:31N 48°43' W 123°21'917.4
2017-May-20 00:59N 48°52' W 123°19'918.3
2017-May-20 00:30N 48°59' W 123°11'3 5.2
2017-May-20 00:00N 49°00' W 123°08'0 0.2
2017-May-19 23:30N 49°00' W 123°08'917.4
2017-May-19 23:00N 48°54' W 123°16'612.9
2017-May-19 22:31N 48°48' W 123°21'713.8
2017-May-19 22:00N 48°41' W 123°25'0 0.0
2017-May-19 21:30N 48°41' W 123°25'714.3
2017-May-19 21:00N 48°48' W 123°21'917.1
2017-May-19 20:30N 48°56' W 123°15'612.9
2017-May-19 20:00N 49°00' W 123°08'0 0.1
2017-May-19 19:30N 49°00' W 123°08'816.5
2017-May-19 19:00N 48°54' W 123°16'715.2
2017-May-19 18:31N 48°47' W 123°21'612.6
2017-May-19 18:00N 48°41' W 123°25'0 0.0
2017-May-19 17:30N 48°41' W 123°25'713.5
2017-May-19 17:01N 48°48' W 123°21'815.7
2017-May-19 16:30N 48°55' W 123°16'714.9
2017-May-19 16:00N 49°00' W 123°08'0 0.0
2017-May-19 15:30N 49°00' W 123°08'714.7
2017-May-19 15:00N 48°55' W 123°15'1514.8
2017-May-19 14:00N 48°41' W 123°25'0 0.0
2017-May-19 13:31N 48°41' W 123°25'0 0.0
2017-May-19 13:00N 48°41' W 123°25'0 0.0
2017-May-19 12:27N 48°41' W 123°25'0 0.0
2017-May-19 12:00N 48°41' W 123°25'0 0.0
2017-May-19 11:30N 48°41' W 123°25'0 0.0
2017-May-19 11:00N 48°41' W 123°25'0 0.0
2017-May-19 10:30N 48°41' W 123°25'0 0.0
2017-May-19 10:00N 48°41' W 123°25'0 0.0
2017-May-19 09:30N 48°41' W 123°25'0 0.0
2017-May-19 08:57N 48°41' W 123°25'0 0.0
2017-May-19 08:30N 48°41' W 123°25'0 0.0
2017-May-19 08:00N 48°41' W 123°25'0 0.0
2017-May-19 07:30N 48°41' W 123°25'0 0.0
2017-May-19 07:00N 48°41' W 123°25'0 0.0
2017-May-19 06:30N 48°41' W 123°25'0 0.0
2017-May-19 06:00N 48°41' W 123°25'0 0.3
2017-May-19 05:30N 48°41' W 123°25'815.7
2017-May-19 05:00N 48°49' W 123°20'714.2
2017-May-19 04:30N 48°55' W 123°16'714.4
2017-May-19 04:00N 49°00' W 123°08'0 0.0
2017-May-19 03:30N 49°00' W 123°08'815.8
2017-May-19 03:00N 48°54' W 123°15'816.5
2017-May-19 02:30N 48°47' W 123°21'612.0
2017-May-19 02:00N 48°41' W 123°25'1 1.2
2017-May-19 01:31N 48°42' W 123°24'917.4
2017-May-19 00:59N 48°50' W 123°21'815.9
2017-May-19 00:30N 48°57' W 123°15'611.3
2017-May-19 00:00N 49°00' W 123°08'0 0.3
2017-May-18 23:30N 49°00' W 123°08'714.1
2017-May-18 23:00N 48°55' W 123°15'714.6
2017-May-18 22:30N 48°49' W 123°21'815.2
2017-May-18 22:00N 48°41' W 123°25'0 0.0
2017-May-18 21:30N 48°41' W 123°25'714.5
2017-May-18 21:00N 48°48' W 123°21'917.6
2017-May-18 20:29N 48°56' W 123°14'611.8
2017-May-18 20:00N 49°00' W 123°08'0 0.9
2017-May-18 19:30N 49°00' W 123°08'918.3
2017-May-18 19:01N 48°53' W 123°17'612.6
2017-May-18 18:30N 48°47' W 123°21'612.8
2017-May-18 18:00N 48°41' W 123°25'0 0.0
2017-May-18 17:30N 48°41' W 123°25'713.9
2017-May-18 17:00N 48°48' W 123°21'815.4
2017-May-18 16:30N 48°55' W 123°16'815.0
2017-May-18 16:00N 49°00' W 123°08'0 0.0
2017-May-18 15:30N 49°00' W 123°08'714.5
2017-May-18 15:00N 48°55' W 123°15'815.7
2017-May-18 14:30N 48°48' W 123°21'7 7.0
2017-May-18 13:30N 48°41' W 123°25'0 0.0
2017-May-18 13:00N 48°41' W 123°25'0 0.0
2017-May-18 12:30N 48°41' W 123°25'0 0.0
2017-May-18 12:00N 48°41' W 123°25'0 0.0
2017-May-18 11:30N 48°41' W 123°25'0 0.0
2017-May-18 11:00N 48°41' W 123°25'0 0.0
2017-May-18 10:30N 48°41' W 123°25'  
Track history (hours):
 
Tides and Currents Weather Stations Pressure Air Temp Water Temp Dewpoint Dewpoint Depression Visibility Wind Speed Wind Dir Waves Ship Positions

Spirit Of Vi

Last reported at 2017-May-28 10:30 UTC. Time now 2017-May-28 12:21 UTC.
Position N 48°41' W 123°25'.

Length 168 m; draft 5 m.

Type: Ship. MMSI: 316001269.

Date/timePositionNaut miles runAvg speedWind from/ knotsBaromVisibWave heightAir tempDewpointWater temp
2017-May-28 10:30N 48°41' W 123°25'0 0.0
2017-May-28 10:00N 48°41' W 123°25'0 0.0
2017-May-28 09:27N 48°41' W 123°25'0 0.0
2017-May-28 08:57N 48°41' W 123°25'0 0.0
2017-May-28 07:09N 48°41' W 123°25'0 0.0
2017-May-28 06:45N 48°41' W 123°25'0 0.0
2017-May-28 06:30N 48°41' W 123°25'0 0.0
2017-May-28 06:00N 48°41' W 123°25'0 0.8
2017-May-28 05:24N 48°42' W 123°24'817.3
2017-May-28 04:58N 48°49' W 123°21'916.1
2017-May-28 04:25N 48°56' W 123°13'613.2
2017-May-28 04:00N 49°00' W 123°08'0 0.2
2017-May-28 03:30N 49°00' W 123°08'918.2
2017-May-28 03:00N 48°53' W 123°17'714.9
2017-May-28 02:30N 48°46' W 123°21'5 9.4
2017-May-28 01:55N 48°41' W 123°25'0 0.0
2017-May-28 01:30N 48°41' W 123°25'714.0
2017-May-28 00:59N 48°48' W 123°21'714.6
2017-May-28 00:30N 48°55' W 123°16'816.0
2017-May-28 00:01N 49°00' W 123°08'0 0.0
2017-May-27 23:30N 49°00' W 123°08'714.5
2017-May-27 23:00N 48°55' W 123°15'816.8
2017-May-27 22:30N 48°47' W 123°21'713.1
2017-May-27 22:00N 48°41' W 123°25'0 0.2
2017-May-27 21:30N 48°41' W 123°25'816.3
2017-May-27 21:00N 48°49' W 123°21'714.9
2017-May-27 20:30N 48°56' W 123°15'713.1
2017-May-27 20:00N 49°00' W 123°08'0 0.0
2017-May-27 19:30N 49°00' W 123°08'816.8
2017-May-27 19:00N 48°54' W 123°16'713.6
2017-May-27 18:30N 48°48' W 123°21'713.9
2017-May-27 18:01N 48°41' W 123°25'0 0.0
2017-May-27 17:31N 48°41' W 123°25'815.5
2017-May-27 17:00N 48°49' W 123°21'917.4
2017-May-27 16:30N 48°56' W 123°15'611.4
2017-May-27 16:00N 49°00' W 123°08'0 0.2
2017-May-27 15:30N 49°00' W 123°08'917.6
2017-May-27 15:00N 48°53' W 123°16'1313.3
2017-May-27 14:01N 48°41' W 123°25'0 0.0
2017-May-27 13:31N 48°41' W 123°25'0 0.0
2017-May-27 13:00N 48°41' W 123°25'0 0.0
2017-May-27 12:30N 48°41' W 123°25'0 0.0
2017-May-27 12:00N 48°41' W 123°25'0 0.0
2017-May-27 11:30N 48°41' W 123°25'0 0.0
2017-May-27 11:00N 48°41' W 123°25'0 0.0
2017-May-27 10:24N 48°41' W 123°25'0 0.0
2017-May-27 10:00N 48°41' W 123°25'0 0.0
2017-May-27 09:30N 48°41' W 123°25'0 0.0
2017-May-27 09:00N 48°41' W 123°25'0 0.0
2017-May-27 08:24N 48°41' W 123°25'0 0.0
2017-May-27 08:00N 48°41' W 123°25'0 0.0
2017-May-27 07:30N 48°41' W 123°25'0 0.0
2017-May-27 07:00N 48°41' W 123°25'0 0.0
2017-May-27 06:27N 48°41' W 123°25'0 0.0
2017-May-27 06:00N 48°41' W 123°25'0 0.4
2017-May-27 05:30N 48°41' W 123°24'917.2
2017-May-27 05:01N 48°50' W 123°21'917.4
2017-May-27 04:30N 48°57' W 123°13'5 9.7
2017-May-27 04:00N 49°00' W 123°08'2 3.3
2017-May-27 03:30N 48°59' W 123°09'918.5
2017-May-27 03:00N 48°52' W 123°18'814.9
2017-May-27 02:30N 48°45' W 123°22'4 7.9
2017-May-27 02:00N 48°41' W 123°25'2 4.9
2017-May-27 01:30N 48°42' W 123°21'918.3
2017-May-27 01:00N 48°52' W 123°21'714.7
2017-May-27 00:30N 48°57' W 123°13'5 9.5
2017-May-27 00:00N 49°00' W 123°08'1 1.9
2017-May-26 23:30N 48°60' W 123°09'1020.1
2017-May-26 23:00N 48°52' W 123°19'817.3
2017-May-26 22:30N 48°44' W 123°24'3 5.2
2017-May-26 22:00N 48°41' W 123°25'2 4.6
2017-May-26 21:30N 48°42' W 123°22'918.2
2017-May-26 21:00N 48°52' W 123°21'714.6
2017-May-26 20:30N 48°57' W 123°13'510.0
2017-May-26 20:00N 49°00' W 123°08'1 2.4
2017-May-26 19:30N 48°59' W 123°09'1019.6
2017-May-26 19:00N 48°52' W 123°19'612.0
2017-May-26 18:30N 48°46' W 123°21'510.3
2017-May-26 18:00N 48°41' W 123°25'0 0.3
2017-May-26 17:30N 48°41' W 123°25'917.3
2017-May-26 17:00N 48°50' W 123°21'816.3
2017-May-26 16:30N 48°57' W 123°14'510.8
2017-May-26 16:01N 49°00' W 123°08'1 1.2
2017-May-26 15:30N 48°60' W 123°08'1019.3
2017-May-26 14:59N 48°52' W 123°18'1111.3
2017-May-26 13:58N 48°41' W 123°25'0 0.0
2017-May-26 13:28N 48°41' W 123°25'0 0.0
2017-May-26 12:58N 48°41' W 123°25'0 0.0
2017-May-26 12:28N 48°41' W 123°25'0 0.0
2017-May-26 11:58N 48°41' W 123°25'0 0.0
2017-May-26 11:28N 48°41' W 123°25'0 0.0
2017-May-26 10:58N 48°41' W 123°25'0 0.0
2017-May-26 10:25N 48°41' W 123°25'0 0.0
2017-May-26 09:58N 48°41' W 123°25'0 0.0
2017-May-26 09:22N 48°41' W 123°25'0 0.0
2017-May-26 08:58N 48°41' W 123°25'0 0.0
2017-May-26 08:28N 48°41' W 123°25'0 0.0
2017-May-26 07:58N 48°41' W 123°25'0 0.0
2017-May-26 07:25N 48°41' W 123°25'0 0.0
2017-May-26 06:52N 48°41' W 123°25'0 0.0
2017-May-26 06:28N 48°41' W 123°25'0 0.0
2017-May-26 05:58N 48°41' W 123°25'0 0.0
2017-May-26 05:30N 48°41' W 123°25'713.1
2017-May-26 05:01N 48°47' W 123°20'816.1
2017-May-26 04:31N 48°55' W 123°16'815.1
2017-May-26 04:00N 49°00' W 123°08'1 1.1
2017-May-26 03:30N 48°60' W 123°09'1019.3
2017-May-26 02:59N 48°52' W 123°18'714.5
2017-May-26 02:30N 48°46' W 123°22'5 9.6
2017-May-26 02:00N 48°41' W 123°25'1 2.1
2017-May-26 01:30N 48°42' W 123°23'917.8
2017-May-26 01:00N 48°51' W 123°21'917.5
2017-May-26 00:30N 48°57' W 123°13'5 9.0
2017-May-26 00:00N 49°00' W 123°08'0 0.2
2017-May-25 23:30N 49°00' W 123°08'917.9
2017-May-25 22:59N 48°53' W 123°17'816.6
2017-May-25 22:30N 48°45' W 123°21'5 6.1
2017-May-25 21:42N 48°41' W 123°25'1 4.9
2017-May-25 21:30N 48°42' W 123°23'917.0
2017-May-25 20:59N 48°50' W 123°21'613.2
2017-May-25 20:30N 48°56' W 123°15'713.3
2017-May-25 19:59N 49°00' W 123°08'0 0.2
2017-May-25 19:30N 49°00' W 123°08'816.2
2017-May-25 19:00N 48°54' W 123°16'714.5
2017-May-25 18:30N 48°48' W 123°21'710.8
2017-May-25 17:53N 48°41' W 123°25'0 0.1
2017-May-25 17:30N 48°41' W 123°25'816.8
2017-May-25 17:00N 48°49' W 123°20'917.5
2017-May-25 16:31N 48°57' W 123°14'5 9.7
2017-May-25 15:58N 49°00' W 123°08'1 2.2
2017-May-25 15:30N 48°59' W 123°08'817.1
2017-May-25 15:00N 48°53' W 123°17'1312.6
2017-May-25 14:00N 48°41' W 123°25'0 0.0
2017-May-25 13:30N 48°41' W 123°25'0 0.0
2017-May-25 13:00N 48°41' W 123°25'0 0.0
2017-May-25 12:27N 48°41' W 123°25'0 0.0
2017-May-25 11:57N 48°41' W 123°25'0 0.0
2017-May-25 11:27N 48°41' W 123°25'0 0.0
2017-May-25 05:48N 48°41' W 123°25'0 0.0
2017-May-25 05:30N 48°41' W 123°25'612.8
2017-May-25 05:00N 48°47' W 123°21'816.6
2017-May-25 04:30N 48°55' W 123°16'815.2
2017-May-25 04:00N 49°00' W 123°08'1 1.2
2017-May-25 03:30N 48°60' W 123°09'1019.8
2017-May-25 03:00N 48°52' W 123°18'714.5
2017-May-25 02:30N 48°46' W 123°22'5 9.1
2017-May-25 02:00N 48°41' W 123°25'0 0.6
2017-May-25 01:30N 48°42' W 123°24'816.7
2017-May-25 01:00N 48°50' W 123°21'816.3
2017-May-25 00:30N 48°56' W 123°14'611.2
2017-May-25 00:00N 49°00' W 123°08'0 0.3
2017-May-24 23:30N 49°00' W 123°08'918.3
2017-May-24 23:00N 48°53' W 123°17'816.3
2017-May-24 22:30N 48°45' W 123°21'5 9.7
2017-May-24 22:00N 48°41' W 123°25'1 1.8
2017-May-24 21:30N 48°42' W 123°23'816.9
2017-May-24 21:00N 48°50' W 123°21'815.3
2017-May-24 20:28N 48°57' W 123°13'511.3
2017-May-24 20:00N 49°00' W 123°08'0 0.7
2017-May-24 19:30N 49°00' W 123°08'918.6
2017-May-24 19:00N 48°53' W 123°17'612.8
2017-May-24 18:30N 48°47' W 123°21'612.4
2017-May-24 18:00N 48°41' W 123°25'1 2.1
2017-May-24 17:30N 48°42' W 123°23'1019.1
2017-May-24 17:00N 48°51' W 123°21'918.1
2017-May-24 16:30N 48°57' W 123°11'4 7.3
2017-May-24 16:00N 49°00' W 123°08'1 1.3
2017-May-24 15:30N 48°60' W 123°09'917.5
2017-May-24 15:00N 48°53' W 123°17'612.9
2017-May-24 14:30N 48°47' W 123°21'6 6.2
2017-May-24 13:30N 48°41' W 123°25'0 0.0
2017-May-24 13:01N 48°41' W 123°25'0 0.0
2017-May-24 12:31N 48°41' W 123°25'0 0.0
2017-May-24 12:00N 48°41' W 123°25'0 0.0
2017-May-24 11:30N 48°41' W 123°25'0 0.0
2017-May-24 11:00N 48°41' W 123°25'0 0.0
2017-May-24 10:30N 48°41' W 123°25'0 0.0
2017-May-24 10:00N 48°41' W 123°25'0 0.0
2017-May-24 09:30N 48°41' W 123°25'0 0.0
2017-May-24 09:00N 48°41' W 123°25'0 0.0
2017-May-24 08:30N 48°41' W 123°25'0 0.0
2017-May-24 08:00N 48°41' W 123°25'0 0.0
2017-May-24 07:30N 48°41' W 123°25'0 0.0
2017-May-24 07:00N 48°41' W 123°25'0 0.0
2017-May-24 06:30N 48°41' W 123°25'0 0.0
2017-May-24 06:00N 48°41' W 123°25'5 9.1
2017-May-24 05:31N 48°45' W 123°21'816.4
2017-May-24 05:00N 48°53' W 123°18'918.4
2017-May-24 04:30N 48°60' W 123°08'1 1.2
2017-May-24 04:00N 49°00' W 123°08'5 9.6
2017-May-24 03:30N 48°56' W 123°12'816.8
2017-May-24 03:01N 48°50' W 123°21'917.7
2017-May-24 02:31N 48°42' W 123°27'2 3.1
2017-May-24 02:00N 48°41' W 123°25'3 6.7
2017-May-24 01:31N 48°43' W 123°21'816.4
2017-May-24 01:00N 48°52' W 123°19'816.8
2017-May-24 00:30N 48°58' W 123°11'3 5.6
2017-May-23 23:58N 49°00' W 123°08'1 2.8
2017-May-23 23:30N 48°59' W 123°09'917.9
2017-May-23 23:00N 48°53' W 123°18'714.1
2017-May-23 22:31N 48°46' W 123°22'510.1
2017-May-23 22:00N 48°41' W 123°25'0 0.1
2017-May-23 21:30N 48°41' W 123°25'714.4
2017-May-23 21:00N 48°48' W 123°21'714.6
2017-May-23 20:30N 48°55' W 123°16'815.3
2017-May-23 20:00N 49°00' W 123°08'0 0.2
2017-May-23 19:30N 49°00' W 123°08'917.6
2017-May-23 19:00N 48°53' W 123°17'713.9
2017-May-23 18:30N 48°47' W 123°21'612.6
2017-May-23 18:00N 48°41' W 123°25'0 0.2
2017-May-23 17:31N 48°41' W 123°25'816.0
2017-May-23 17:00N 48°49' W 123°21'816.1
2017-May-23 16:30N 48°56' W 123°14'612.1
2017-May-23 16:00N 49°00' W 123°08'0 0.3
2017-May-23 15:30N 49°00' W 123°08'917.9
2017-May-23 15:00N 48°53' W 123°17'713.9
2017-May-23 14:30N 48°47' W 123°21'6 6.1
2017-May-23 13:30N 48°41' W 123°25'0 0.0
2017-May-23 13:00N 48°41' W 123°25'0 0.0
2017-May-23 12:30N 48°41' W 123°25'0 0.0
2017-May-23 12:00N 48°41' W 123°25'0 0.0
2017-May-23 11:27N 48°41' W 123°25'0 0.0
2017-May-23 11:00N 48°41' W 123°25'0 0.0
2017-May-23 10:27N 48°41' W 123°25'0 0.0
2017-May-23 10:00N 48°41' W 123°25'0 0.0
2017-May-23 09:27N 48°41' W 123°25'0 0.0
2017-May-23 09:00N 48°41' W 123°25'0 0.0
2017-May-23 08:30N 48°41' W 123°25'0 0.0
2017-May-23 08:00N 48°41' W 123°25'0 0.0
2017-May-23 07:30N 48°41' W 123°25'0 0.0
2017-May-23 07:00N 48°41' W 123°25'0 0.0
2017-May-23 06:30N 48°41' W 123°25'0 0.0
2017-May-23 06:00N 48°41' W 123°25'0 0.0
2017-May-23 05:30N 48°41' W 123°25'714.3
2017-May-23 05:00N 48°48' W 123°21'816.1
2017-May-23 04:30N 48°55' W 123°15'713.8
2017-May-23 04:00N 49°00' W 123°08'2 3.0
2017-May-23 03:30N 48°59' W 123°09'919.2
2017-May-23 03:00N 48°52' W 123°18'715.0
2017-May-23 02:30N 48°45' W 123°23'4 7.7
2017-May-23 02:00N 48°41' W 123°25'1 1.9
2017-May-23 01:30N 48°42' W 123°23'918.8
2017-May-23 01:01N 48°51' W 123°21'918.8
2017-May-23 00:30N 48°58' W 123°12'4 6.9
2017-May-23 00:00N 49°00' W 123°08'1 3.0
2017-May-22 23:30N 48°59' W 123°09'1019.5
2017-May-22 23:00N 48°52' W 123°19'815.5
2017-May-22 22:30N 48°45' W 123°23'3 6.8
2017-May-22 22:00N 48°41' W 123°25'0 0.8
2017-May-22 21:30N 48°42' W 123°24'817.1
2017-May-22 21:01N 48°50' W 123°21'612.1
2017-May-22 20:30N 48°55' W 123°16'815.1
2017-May-22 20:00N 49°00' W 123°08'0 0.0
2017-May-22 19:30N 49°00' W 123°08'815.1
2017-May-22 19:00N 48°55' W 123°15'815.6
2017-May-22 18:30N 48°48' W 123°21'713.5
2017-May-22 18:00N 48°41' W 123°25'0 0.1
2017-May-22 17:30N 48°41' W 123°25'815.9
2017-May-22 17:00N 48°49' W 123°21'713.8
2017-May-22 16:30N 48°55' W 123°16'714.5
2017-May-22 16:00N 49°00' W 123°08'0 0.1
2017-May-22 15:30N 49°00' W 123°08'817.0
2017-May-22 15:00N 48°54' W 123°16'1413.6
2017-May-22 14:00N 48°41' W 123°25'0 0.0
2017-May-22 13:31N 48°41' W 123°25'0 0.0
2017-May-22 13:00N 48°41' W 123°25'0 0.0
2017-May-22 12:30N 48°41' W 123°25'0 0.0
2017-May-22 12:00N 48°41' W 123°25'0 0.0
2017-May-22 11:30N 48°41' W 123°25'0 0.0
2017-May-22 11:00N 48°41' W 123°25'0 0.0
2017-May-22 10:30N 48°41' W 123°25'0 0.0
2017-May-22 10:00N 48°41' W 123°25'0 0.0
2017-May-22 09:30N 48°41' W 123°25'0 0.0
2017-May-22 09:00N 48°41' W 123°25'0 0.0
2017-May-22 08:24N 48°41' W 123°25'0 0.0
2017-May-22 08:00N 48°41' W 123°25'0 0.0
2017-May-22 07:12N 48°41' W 123°25'0 0.0
2017-May-22 05:32N 48°41' W 123°25'0 0.4
2017-May-22 05:31N 48°41' W 123°25'713.7
2017-May-22 05:00N 48°48' W 123°21'815.6
2017-May-22 04:30N 48°55' W 123°16'814.9
2017-May-22 04:00N 49°00' W 123°08'0 0.2
2017-May-22 03:30N 49°00' W 123°08'815.8
2017-May-22 03:00N 48°54' W 123°15'714.4
2017-May-22 02:30N 48°48' W 123°21'713.9
2017-May-22 02:00N 48°41' W 123°25'0 0.0
2017-May-22 01:31N 48°41' W 123°25'714.1
2017-May-22 01:00N 48°48' W 123°21'815.5
2017-May-22 00:30N 48°55' W 123°16'714.7
2017-May-22 00:00N 49°00' W 123°08'0 0.1
2017-May-21 23:30N 49°00' W 123°08'917.1
2017-May-21 23:00N 48°54' W 123°16'713.7
2017-May-21 22:30N 48°48' W 123°21'713.4
2017-May-21 22:00N 48°41' W 123°25'0 0.0
2017-May-21 21:30N 48°41' W 123°25'714.3
2017-May-21 21:00N 48°48' W 123°21'814.9
2017-May-21 20:30N 48°55' W 123°15'714.9
2017-May-21 20:00N 49°00' W 123°08'0 0.1
2017-May-21 19:30N 49°00' W 123°08'816.9
2017-May-21 19:01N 48°54' W 123°16'612.9
2017-May-21 18:30N 48°48' W 123°21'714.3
2017-May-21 18:00N 48°41' W 123°25'0 0.3
2017-May-21 17:30N 48°41' W 123°25'816.7
2017-May-21 17:00N 48°49' W 123°21'612.9
2017-May-21 16:30N 48°55' W 123°16'714.7
2017-May-21 16:00N 49°00' W 123°08'0 0.0
2017-May-21 15:30N 49°00' W 123°08'714.6
2017-May-21 15:00N 48°55' W 123°15'1514.7
2017-May-21 14:00N 48°41' W 123°25'0 0.1
2017-May-21 13:30N 48°41' W 123°25'0 0.0
2017-May-21 13:00N 48°41' W 123°25'0 0.0
2017-May-21 12:30N 48°41' W 123°25'0 0.0
2017-May-21 12:00N 48°41' W 123°25'0 0.0
2017-May-21 11:30N 48°41' W 123°25'0 0.0
2017-May-21 11:00N 48°41' W 123°25'0 0.0
2017-May-21 10:30N 48°41' W 123°25'0 0.0
2017-May-21 09:57N 48°41' W 123°25'0 0.0
2017-May-21 09:27N 48°41' W 123°25'0 0.0
2017-May-21 09:00N 48°41' W 123°25'0 0.0
2017-May-21 08:30N 48°41' W 123°25'0 0.0
2017-May-21 08:00N 48°41' W 123°25'0 0.0
2017-May-21 07:30N 48°41' W 123°25'0 0.0
2017-May-21 06:54N 48°41' W 123°25'0 0.0
2017-May-21 06:30N 48°41' W 123°25'0 0.0
2017-May-21 06:00N 48°41' W 123°25'2 3.5
2017-May-21 05:31N 48°42' W 123°22'918.2
2017-May-21 05:00N 48°51' W 123°21'816.7
2017-May-21 04:30N 48°57' W 123°13'5 9.0
2017-May-21 04:00N 49°00' W 123°08'0 0.0
2017-May-21 03:30N 49°00' W 123°08'815.1
2017-May-21 03:00N 48°54' W 123°15'714.7
2017-May-21 02:31N 48°48' W 123°21'714.4
2017-May-21 02:01N 48°41' W 123°25'0 0.2
2017-May-21 01:30N 48°41' W 123°25'917.1
2017-May-21 01:01N 48°50' W 123°21'917.1
2017-May-21 00:30N 48°56' W 123°12'510.0
2017-May-21 00:00N 49°00' W 123°08'0 0.0
2017-May-20 23:30N 49°00' W 123°08'815.9
2017-May-20 23:00N 48°54' W 123°16'713.7
2017-May-20 22:30N 48°48' W 123°21'714.7
2017-May-20 22:00N 48°41' W 123°25'0 0.0
2017-May-20 21:31N 48°41' W 123°25'612.8
2017-May-20 21:00N 48°47' W 123°21'816.5
2017-May-20 20:30N 48°55' W 123°16'815.1
2017-May-20 20:01N 49°00' W 123°08'0 0.0
2017-May-20 19:30N 49°00' W 123°08'715.0
2017-May-20 19:00N 48°55' W 123°15'815.4
2017-May-20 18:30N 48°48' W 123°21'713.9
2017-May-20 18:00N 48°41' W 123°25'0 0.0
2017-May-20 17:30N 48°41' W 123°25'714.3
2017-May-20 17:00N 48°48' W 123°21'816.0
2017-May-20 16:30N 48°55' W 123°16'714.1
2017-May-20 16:00N 49°00' W 123°08'0 0.0
2017-May-20 15:30N 49°00' W 123°08'714.4
2017-May-20 15:00N 48°55' W 123°15'714.6
2017-May-20 14:30N 48°48' W 123°20'8 7.5
2017-May-20 13:30N 48°41' W 123°25'0 0.0
2017-May-20 13:00N 48°41' W 123°25'0 0.0
2017-May-20 12:30N 48°41' W 123°25'0 0.0
2017-May-20 11:59N 48°41' W 123°25'0 0.0
2017-May-20 11:29N 48°41' W 123°25'0 0.0
2017-May-20 10:59N 48°41' W 123°25'0 0.0
2017-May-20 10:29N 48°41' W 123°25'0 0.0
2017-May-20 09:59N 48°41' W 123°25'0 0.0
2017-May-20 09:29N 48°41' W 123°25'0 0.0
2017-May-20 08:59N 48°41' W 123°25'0 0.0
2017-May-20 08:29N 48°41' W 123°25'0 0.0
2017-May-20 07:56N 48°41' W 123°25'0 0.0
2017-May-20 07:29N 48°41' W 123°25'0 0.0
2017-May-20 06:59N 48°41' W 123°25'0 0.0
2017-May-20 06:23N 48°41' W 123°25'0 0.0
2017-May-20 05:59N 48°41' W 123°25'0 0.5
2017-May-20 05:30N 48°41' W 123°24'816.4
2017-May-20 05:00N 48°49' W 123°21'612.7
2017-May-20 04:30N 48°55' W 123°16'815.4
2017-May-20 04:01N 49°00' W 123°08'0 0.0
2017-May-20 03:30N 49°00' W 123°08'816.7
2017-May-20 03:00N 48°54' W 123°16'816.6
2017-May-20 02:30N 48°46' W 123°21'611.1
2017-May-20 02:00N 48°41' W 123°25'3 5.5
2017-May-20 01:31N 48°43' W 123°21'917.4
2017-May-20 00:59N 48°52' W 123°19'918.3
2017-May-20 00:30N 48°59' W 123°11'3 5.2
2017-May-20 00:00N 49°00' W 123°08'0 0.2
2017-May-19 23:30N 49°00' W 123°08'917.4
2017-May-19 23:00N 48°54' W 123°16'612.9
2017-May-19 22:31N 48°48' W 123°21'713.8
2017-May-19 22:00N 48°41' W 123°25'0 0.0
2017-May-19 21:30N 48°41' W 123°25'714.3
2017-May-19 21:00N 48°48' W 123°21'917.1
2017-May-19 20:30N 48°56' W 123°15'612.9
2017-May-19 20:00N 49°00' W 123°08'0 0.1
2017-May-19 19:30N 49°00' W 123°08'816.5
2017-May-19 19:00N 48°54' W 123°16'715.2
2017-May-19 18:31N 48°47' W 123°21'612.6
2017-May-19 18:00N 48°41' W 123°25'0 0.0
2017-May-19 17:30N 48°41' W 123°25'713.5
2017-May-19 17:01N 48°48' W 123°21'815.7
2017-May-19 16:30N 48°55' W 123°16'714.9
2017-May-19 16:00N 49°00' W 123°08'0 0.0
2017-May-19 15:30N 49°00' W 123°08'714.7
2017-May-19 15:00N 48°55' W 123°15'1514.8
2017-May-19 14:00N 48°41' W 123°25'0 0.0
2017-May-19 13:31N 48°41' W 123°25'0 0.0
2017-May-19 13:00N 48°41' W 123°25'0 0.0
2017-May-19 12:27N 48°41' W 123°25'0 0.0
2017-May-19 12:00N 48°41' W 123°25'0 0.0
2017-May-19 11:30N 48°41' W 123°25'0 0.0
2017-May-19 11:00N 48°41' W 123°25'0 0.0
2017-May-19 10:30N 48°41' W 123°25'0 0.0
2017-May-19 10:00N 48°41' W 123°25'0 0.0
2017-May-19 09:30N 48°41' W 123°25'0 0.0
2017-May-19 08:57N 48°41' W 123°25'0 0.0
2017-May-19 08:30N 48°41' W 123°25'0 0.0
2017-May-19 08:00N 48°41' W 123°25'0 0.0
2017-May-19 07:30N 48°41' W 123°25'0 0.0
2017-May-19 07:00N 48°41' W 123°25'0 0.0
2017-May-19 06:30N 48°41' W 123°25'0 0.0
2017-May-19 06:00N 48°41' W 123°25'0 0.3
2017-May-19 05:30N 48°41' W 123°25'815.7
2017-May-19 05:00N 48°49' W 123°20'714.2
2017-May-19 04:30N 48°55' W 123°16'714.4
2017-May-19 04:00N 49°00' W 123°08'0 0.0
2017-May-19 03:30N 49°00' W 123°08'815.8
2017-May-19 03:00N 48°54' W 123°15'816.5
2017-May-19 02:30N 48°47' W 123°21'612.0
2017-May-19 02:00N 48°41' W 123°25'1 1.2
2017-May-19 01:31N 48°42' W 123°24'917.4
2017-May-19 00:59N 48°50' W 123°21'815.9
2017-May-19 00:30N 48°57' W 123°15'611.3
2017-May-19 00:00N 49°00' W 123°08'0 0.3
2017-May-18 23:30N 49°00' W 123°08'714.1
2017-May-18 23:00N 48°55' W 123°15'714.6
2017-May-18 22:30N 48°49' W 123°21'815.2
2017-May-18 22:00N 48°41' W 123°25'0 0.0
2017-May-18 21:30N 48°41' W 123°25'714.5
2017-May-18 21:00N 48°48' W 123°21'917.6
2017-May-18 20:29N 48°56' W 123°14'611.8
2017-May-18 20:00N 49°00' W 123°08'0 0.9
2017-May-18 19:30N 49°00' W 123°08'918.3
2017-May-18 19:01N 48°53' W 123°17'612.6
2017-May-18 18:30N 48°47' W 123°21'612.8
2017-May-18 18:00N 48°41' W 123°25'0 0.0
2017-May-18 17:30N 48°41' W 123°25'713.9
2017-May-18 17:00N 48°48' W 123°21'815.4
2017-May-18 16:30N 48°55' W 123°16'815.0
2017-May-18 16:00N 49°00' W 123°08'0 0.0
2017-May-18 15:30N 49°00' W 123°08'714.5
2017-May-18 15:00N 48°55' W 123°15'815.7
2017-May-18 14:30N 48°48' W 123°21'7 7.0
2017-May-18 13:30N 48°41' W 123°25'0 0.0
2017-May-18 13:00N 48°41' W 123°25'0 0.0
2017-May-18 12:30N 48°41' W 123°25'0 0.0
2017-May-18 12:00N 48°41' W 123°25'0 0.0
2017-May-18 11:30N 48°41' W 123°25'0 0.0
2017-May-18 11:00N 48°41' W 123°25'0 0.0
2017-May-18 10:30N 48°41' W 123°25'  

Dump ship's entire track history